sensor_id;sensor_type;location;lat;lon;timestamp;P1;durP1;ratioP1;P2;durP2;ratioP2
26710;SDS011;18311;52.754;18.118;2022-12-18T00:02:13;34.98;;;25.90;;
26710;SDS011;18311;52.754;18.118;2022-12-18T00:07:22;33.02;;;25.27;;
26710;SDS011;18311;52.754;18.118;2022-12-18T00:09:53;32.98;;;25.15;;
26710;SDS011;18311;52.754;18.118;2022-12-18T00:12:24;36.13;;;26.15;;
26710;SDS011;18311;52.754;18.118;2022-12-18T00:15:00;33.63;;;25.12;;
26710;SDS011;18311;52.754;18.118;2022-12-18T00:17:30;36.10;;;27.55;;
26710;SDS011;18311;52.754;18.118;2022-12-18T00:20:01;36.17;;;27.75;;
26710;SDS011;18311;52.754;18.118;2022-12-18T00:22:32;36.17;;;28.35;;
26710;SDS011;18311;52.754;18.118;2022-12-18T00:25:16;41.20;;;28.87;;
26710;SDS011;18311;52.754;18.118;2022-12-18T00:27:46;40.05;;;29.30;;
26710;SDS011;18311;52.754;18.118;2022-12-18T00:30:25;41.42;;;30.92;;
26710;SDS011;18311;52.754;18.118;2022-12-18T00:32:55;44.48;;;32.23;;
26710;SDS011;18311;52.754;18.118;2022-12-18T00:35:28;46.02;;;32.50;;
26710;SDS011;18311;52.754;18.118;2022-12-18T00:37:58;44.00;;;31.50;;
26710;SDS011;18311;52.754;18.118;2022-12-18T00:40:35;44.98;;;33.05;;
26710;SDS011;18311;52.754;18.118;2022-12-18T00:43:06;44.73;;;32.30;;
26710;SDS011;18311;52.754;18.118;2022-12-18T00:45:36;43.42;;;32.60;;
26710;SDS011;18311;52.754;18.118;2022-12-18T00:48:07;42.60;;;33.42;;
26710;SDS011;18311;52.754;18.118;2022-12-18T00:50:44;46.02;;;32.60;;
26710;SDS011;18311;52.754;18.118;2022-12-18T00:53:16;43.45;;;31.17;;
26710;SDS011;18311;52.754;18.118;2022-12-18T00:55:47;43.95;;;32.25;;
26710;SDS011;18311;52.754;18.118;2022-12-18T00:58:26;42.93;;;31.97;;
26710;SDS011;18311;52.754;18.118;2022-12-18T01:00:56;46.65;;;33.25;;
26710;SDS011;18311;52.754;18.118;2022-12-18T01:03:27;43.40;;;32.03;;
26710;SDS011;18311;52.754;18.118;2022-12-18T01:05:58;43.63;;;31.90;;
26710;SDS011;18311;52.754;18.118;2022-12-18T01:08:35;44.03;;;31.73;;
26710;SDS011;18311;52.754;18.118;2022-12-18T01:11:10;42.38;;;30.90;;
26710;SDS011;18311;52.754;18.118;2022-12-18T01:13:52;46.10;;;31.75;;
26710;SDS011;18311;52.754;18.118;2022-12-18T01:16:23;44.75;;;32.50;;
26710;SDS011;18311;52.754;18.118;2022-12-18T01:18:54;46.10;;;31.75;;
26710;SDS011;18311;52.754;18.118;2022-12-18T01:21:29;44.67;;;30.60;;
26710;SDS011;18311;52.754;18.118;2022-12-18T01:24:01;44.80;;;32.15;;
26710;SDS011;18311;52.754;18.118;2022-12-18T01:26:32;44.88;;;31.85;;
26710;SDS011;18311;52.754;18.118;2022-12-18T01:29:02;48.33;;;33.90;;
26710;SDS011;18311;52.754;18.118;2022-12-18T01:31:44;44.48;;;31.60;;
26710;SDS011;18311;52.754;18.118;2022-12-18T01:34:10;45.92;;;32.33;;
26710;SDS011;18311;52.754;18.118;2022-12-18T01:36:41;48.98;;;32.90;;
26710;SDS011;18311;52.754;18.118;2022-12-18T01:39:12;46.68;;;32.73;;
26710;SDS011;18311;52.754;18.118;2022-12-18T01:41:45;48.02;;;32.88;;
26710;SDS011;18311;52.754;18.118;2022-12-18T01:47:40;42.08;;;29.57;;
26710;SDS011;18311;52.754;18.118;2022-12-18T01:50:36;46.00;;;31.50;;
26710;SDS011;18311;52.754;18.118;2022-12-18T01:53:13;46.33;;;30.30;;
26710;SDS011;18311;52.754;18.118;2022-12-18T01:55:52;42.38;;;30.43;;
26710;SDS011;18311;52.754;18.118;2022-12-18T01:58:46;44.08;;;29.57;;
26710;SDS011;18311;52.754;18.118;2022-12-18T02:01:13;42.88;;;28.38;;
26710;SDS011;18311;52.754;18.118;2022-12-18T02:03:46;38.25;;;27.73;;
26710;SDS011;18311;52.754;18.118;2022-12-18T02:06:23;40.50;;;28.38;;
26710;SDS011;18311;52.754;18.118;2022-12-18T02:17:28;35.45;;;24.90;;
26710;SDS011;18311;52.754;18.118;2022-12-18T02:20:20;35.48;;;25.70;;
26710;SDS011;18311;52.754;18.118;2022-12-18T02:28:31;40.55;;;27.62;;
26710;SDS011;18311;52.754;18.118;2022-12-18T02:31:23;40.65;;;28.10;;
26710;SDS011;18311;52.754;18.118;2022-12-18T02:34:00;41.75;;;28.25;;
26710;SDS011;18311;52.754;18.118;2022-12-18T02:36:32;40.85;;;27.35;;
26710;SDS011;18311;52.754;18.118;2022-12-18T02:39:06;42.35;;;29.15;;
26710;SDS011;18311;52.754;18.118;2022-12-18T02:41:42;43.38;;;29.07;;
26710;SDS011;18311;52.754;18.118;2022-12-18T02:44:13;43.28;;;29.00;;
26710;SDS011;18311;52.754;18.118;2022-12-18T02:46:46;47.70;;;29.55;;
26710;SDS011;18311;52.754;18.118;2022-12-18T02:49:26;46.13;;;30.60;;
26710;SDS011;18311;52.754;18.118;2022-12-18T02:58:20;47.23;;;30.90;;
26710;SDS011;18311;52.754;18.118;2022-12-18T03:01:00;45.73;;;30.12;;
26710;SDS011;18311;52.754;18.118;2022-12-18T03:03:39;45.17;;;31.35;;
26710;SDS011;18311;52.754;18.118;2022-12-18T03:06:12;50.15;;;31.93;;
26710;SDS011;18311;52.754;18.118;2022-12-18T03:08:45;50.90;;;33.65;;
26710;SDS011;18311;52.754;18.118;2022-12-18T03:11:25;50.35;;;33.15;;
26710;SDS011;18311;52.754;18.118;2022-12-18T03:14:17;49.65;;;32.38;;
26710;SDS011;18311;52.754;18.118;2022-12-18T03:16:51;49.13;;;31.77;;
26710;SDS011;18311;52.754;18.118;2022-12-18T03:19:28;51.73;;;32.13;;
26710;SDS011;18311;52.754;18.118;2022-12-18T03:22:02;45.20;;;29.92;;
26710;SDS011;18311;52.754;18.118;2022-12-18T03:27:15;46.42;;;29.27;;
26710;SDS011;18311;52.754;18.118;2022-12-18T03:29:52;41.25;;;27.52;;
26710;SDS011;18311;52.754;18.118;2022-12-18T03:35:41;40.40;;;27.82;;
26710;SDS011;18311;52.754;18.118;2022-12-18T03:38:13;41.95;;;27.45;;
26710;SDS011;18311;52.754;18.118;2022-12-18T03:43:26;42.85;;;28.47;;
26710;SDS011;18311;52.754;18.118;2022-12-18T03:46:15;38.15;;;26.70;;
26710;SDS011;18311;52.754;18.118;2022-12-18T03:48:54;40.78;;;28.60;;
26710;SDS011;18311;52.754;18.118;2022-12-18T03:54:09;42.53;;;29.02;;
26710;SDS011;18311;52.754;18.118;2022-12-18T03:56:47;41.83;;;29.00;;
26710;SDS011;18311;52.754;18.118;2022-12-18T03:59:16;42.20;;;28.98;;
26710;SDS011;18311;52.754;18.118;2022-12-18T04:01:51;44.95;;;29.25;;
26710;SDS011;18311;52.754;18.118;2022-12-18T04:04:25;43.30;;;28.47;;
26710;SDS011;18311;52.754;18.118;2022-12-18T04:07:07;41.40;;;29.12;;
26710;SDS011;18311;52.754;18.118;2022-12-18T04:09:38;43.42;;;28.75;;
26710;SDS011;18311;52.754;18.118;2022-12-18T04:14:54;43.20;;;29.25;;
26710;SDS011;18311;52.754;18.118;2022-12-18T04:17:25;42.98;;;30.75;;
26710;SDS011;18311;52.754;18.118;2022-12-18T04:19:59;45.45;;;31.30;;
26710;SDS011;18311;52.754;18.118;2022-12-18T04:22:30;47.53;;;32.42;;
26710;SDS011;18311;52.754;18.118;2022-12-18T04:25:02;46.30;;;31.60;;
26710;SDS011;18311;52.754;18.118;2022-12-18T04:27:32;49.05;;;32.30;;
26710;SDS011;18311;52.754;18.118;2022-12-18T04:30:06;46.05;;;32.15;;
26710;SDS011;18311;52.754;18.118;2022-12-18T04:32:40;48.07;;;31.30;;
26710;SDS011;18311;52.754;18.118;2022-12-18T04:35:12;43.05;;;29.50;;
26710;SDS011;18311;52.754;18.118;2022-12-18T04:37:43;43.28;;;30.05;;
26710;SDS011;18311;52.754;18.118;2022-12-18T04:40:18;42.83;;;29.65;;
26710;SDS011;18311;52.754;18.118;2022-12-18T04:42:49;42.35;;;28.07;;
26710;SDS011;18311;52.754;18.118;2022-12-18T04:45:21;39.53;;;27.20;;
26710;SDS011;18311;52.754;18.118;2022-12-18T04:47:51;40.40;;;27.55;;
26710;SDS011;18311;52.754;18.118;2022-12-18T04:50:28;39.63;;;26.80;;
26710;SDS011;18311;52.754;18.118;2022-12-18T04:52:58;41.02;;;26.35;;
26710;SDS011;18311;52.754;18.118;2022-12-18T04:55:29;39.75;;;26.60;;
26710;SDS011;18311;52.754;18.118;2022-12-18T04:57:59;40.88;;;27.52;;
26710;SDS011;18311;52.754;18.118;2022-12-18T05:00:34;38.80;;;27.13;;
26710;SDS011;18311;52.754;18.118;2022-12-18T05:03:06;39.33;;;26.40;;
26710;SDS011;18311;52.754;18.118;2022-12-18T05:05:37;38.25;;;25.77;;
26710;SDS011;18311;52.754;18.118;2022-12-18T05:08:08;38.17;;;26.77;;
26710;SDS011;18311;52.754;18.118;2022-12-18T05:10:40;37.05;;;26.10;;
26710;SDS011;18311;52.754;18.118;2022-12-18T05:13:14;27.00;;;19.92;;
26710;SDS011;18311;52.754;18.118;2022-12-18T05:15:50;41.13;;;27.13;;
26710;SDS011;18311;52.754;18.118;2022-12-18T05:18:18;40.60;;;27.17;;
26710;SDS011;18311;52.754;18.118;2022-12-18T05:21:07;39.23;;;27.40;;
26710;SDS011;18311;52.754;18.118;2022-12-18T05:23:44;39.38;;;27.00;;
26710;SDS011;18311;52.754;18.118;2022-12-18T05:26:16;40.35;;;27.93;;
26710;SDS011;18311;52.754;18.118;2022-12-18T05:28:47;42.05;;;28.83;;
26710;SDS011;18311;52.754;18.118;2022-12-18T05:31:19;40.92;;;27.55;;
26710;SDS011;18311;52.754;18.118;2022-12-18T05:33:57;37.00;;;26.17;;
26710;SDS011;18311;52.754;18.118;2022-12-18T05:36:27;40.67;;;26.62;;
26710;SDS011;18311;52.754;18.118;2022-12-18T05:38:58;38.70;;;25.85;;
26710;SDS011;18311;52.754;18.118;2022-12-18T05:44:03;45.33;;;28.12;;
26710;SDS011;18311;52.754;18.118;2022-12-18T05:46:33;38.17;;;26.45;;
26710;SDS011;18311;52.754;18.118;2022-12-18T05:49:04;42.80;;;27.98;;
26710;SDS011;18311;52.754;18.118;2022-12-18T05:51:41;38.23;;;25.90;;
26710;SDS011;18311;52.754;18.118;2022-12-18T05:54:14;38.75;;;26.75;;
26710;SDS011;18311;52.754;18.118;2022-12-18T05:56:45;37.50;;;25.92;;
26710;SDS011;18311;52.754;18.118;2022-12-18T05:59:16;35.20;;;26.02;;
26710;SDS011;18311;52.754;18.118;2022-12-18T06:01:51;37.33;;;25.12;;
26710;SDS011;18311;52.754;18.118;2022-12-18T06:04:22;35.63;;;24.87;;
26710;SDS011;18311;52.754;18.118;2022-12-18T06:06:52;32.55;;;22.52;;
26710;SDS011;18311;52.754;18.118;2022-12-18T06:09:23;34.63;;;23.30;;
26710;SDS011;18311;52.754;18.118;2022-12-18T06:11:54;34.58;;;23.60;;
26710;SDS011;18311;52.754;18.118;2022-12-18T06:14:31;35.03;;;24.18;;
26710;SDS011;18311;52.754;18.118;2022-12-18T06:17:01;34.78;;;23.87;;
26710;SDS011;18311;52.754;18.118;2022-12-18T06:19:32;36.30;;;24.40;;
26710;SDS011;18311;52.754;18.118;2022-12-18T06:22:13;35.03;;;24.67;;
26710;SDS011;18311;52.754;18.118;2022-12-18T06:24:41;37.70;;;26.05;;
26710;SDS011;18311;52.754;18.118;2022-12-18T06:27:12;34.27;;;24.23;;
26710;SDS011;18311;52.754;18.118;2022-12-18T06:29:42;37.23;;;25.02;;
26710;SDS011;18311;52.754;18.118;2022-12-18T06:32:25;37.05;;;25.65;;
26710;SDS011;18311;52.754;18.118;2022-12-18T06:34:50;37.48;;;25.55;;
26710;SDS011;18311;52.754;18.118;2022-12-18T06:37:21;37.20;;;26.15;;
26710;SDS011;18311;52.754;18.118;2022-12-18T06:40:05;39.40;;;26.02;;
26710;SDS011;18311;52.754;18.118;2022-12-18T06:42:36;36.00;;;24.87;;
26710;SDS011;18311;52.754;18.118;2022-12-18T06:45:06;37.65;;;25.82;;
26710;SDS011;18311;52.754;18.118;2022-12-18T06:47:43;36.60;;;25.08;;
26710;SDS011;18311;52.754;18.118;2022-12-18T06:50:13;36.40;;;24.63;;
26710;SDS011;18311;52.754;18.118;2022-12-18T06:52:44;37.48;;;25.68;;
26710;SDS011;18311;52.754;18.118;2022-12-18T06:55:14;33.75;;;23.90;;
26710;SDS011;18311;52.754;18.118;2022-12-18T06:57:51;32.58;;;23.38;;
26710;SDS011;18311;52.754;18.118;2022-12-18T07:00:22;39.10;;;25.68;;
26710;SDS011;18311;52.754;18.118;2022-12-18T07:02:53;34.55;;;23.80;;
26710;SDS011;18311;52.754;18.118;2022-12-18T07:05:25;35.15;;;24.87;;
26710;SDS011;18311;52.754;18.118;2022-12-18T07:07:58;35.88;;;24.77;;
26710;SDS011;18311;52.754;18.118;2022-12-18T07:10:29;40.23;;;27.93;;
26710;SDS011;18311;52.754;18.118;2022-12-18T07:12:59;43.00;;;28.27;;
26710;SDS011;18311;52.754;18.118;2022-12-18T07:15:29;38.90;;;26.73;;
26710;SDS011;18311;52.754;18.118;2022-12-18T07:18:01;32.98;;;24.72;;
26710;SDS011;18311;52.754;18.118;2022-12-18T07:20:32;34.00;;;24.32;;
26710;SDS011;18311;52.754;18.118;2022-12-18T07:23:04;36.40;;;25.30;;
26710;SDS011;18311;52.754;18.118;2022-12-18T07:25:35;33.80;;;24.40;;
26710;SDS011;18311;52.754;18.118;2022-12-18T07:28:06;36.08;;;25.25;;
26710;SDS011;18311;52.754;18.118;2022-12-18T07:30:38;38.23;;;27.02;;
26710;SDS011;18311;52.754;18.118;2022-12-18T07:33:09;36.23;;;25.65;;
26710;SDS011;18311;52.754;18.118;2022-12-18T07:35:40;39.45;;;26.27;;
26710;SDS011;18311;52.754;18.118;2022-12-18T07:38:11;37.60;;;26.25;;
26710;SDS011;18311;52.754;18.118;2022-12-18T07:40:41;38.15;;;26.60;;
26710;SDS011;18311;52.754;18.118;2022-12-18T07:43:12;39.48;;;26.87;;
26710;SDS011;18311;52.754;18.118;2022-12-18T07:45:42;38.23;;;27.40;;
26710;SDS011;18311;52.754;18.118;2022-12-18T07:48:13;46.28;;;30.45;;
26710;SDS011;18311;52.754;18.118;2022-12-18T07:50:44;45.30;;;31.87;;
26710;SDS011;18311;52.754;18.118;2022-12-18T07:53:14;48.28;;;32.90;;
26710;SDS011;18311;52.754;18.118;2022-12-18T07:55:45;49.40;;;33.05;;
26710;SDS011;18311;52.754;18.118;2022-12-18T07:58:17;52.65;;;33.83;;
26710;SDS011;18311;52.754;18.118;2022-12-18T08:00:49;53.78;;;35.30;;
26710;SDS011;18311;52.754;18.118;2022-12-18T08:03:20;55.15;;;35.83;;
26710;SDS011;18311;52.754;18.118;2022-12-18T08:05:51;54.67;;;34.78;;
26710;SDS011;18311;52.754;18.118;2022-12-18T08:08:22;52.23;;;33.53;;
26710;SDS011;18311;52.754;18.118;2022-12-18T08:10:52;51.58;;;32.55;;
26710;SDS011;18311;52.754;18.118;2022-12-18T08:13:23;52.10;;;33.63;;
26710;SDS011;18311;52.754;18.118;2022-12-18T08:16:06;48.65;;;32.20;;
26710;SDS011;18311;52.754;18.118;2022-12-18T08:18:34;53.42;;;34.35;;
26710;SDS011;18311;52.754;18.118;2022-12-18T08:23:49;63.63;;;38.80;;
26710;SDS011;18311;52.754;18.118;2022-12-18T08:26:21;62.70;;;39.45;;
26710;SDS011;18311;52.754;18.118;2022-12-18T08:28:54;58.80;;;38.02;;
26710;SDS011;18311;52.754;18.118;2022-12-18T08:31:26;53.73;;;36.00;;
26710;SDS011;18311;52.754;18.118;2022-12-18T08:33:59;55.50;;;36.08;;
26710;SDS011;18311;52.754;18.118;2022-12-18T08:36:29;55.45;;;35.92;;
26710;SDS011;18311;52.754;18.118;2022-12-18T08:39:00;53.73;;;36.00;;
26710;SDS011;18311;52.754;18.118;2022-12-18T08:41:30;54.08;;;35.88;;
26710;SDS011;18311;52.754;18.118;2022-12-18T08:44:01;57.75;;;37.60;;
26710;SDS011;18311;52.754;18.118;2022-12-18T08:46:50;57.25;;;37.48;;
26710;SDS011;18311;52.754;18.118;2022-12-18T08:49:20;57.33;;;37.67;;
26710;SDS011;18311;52.754;18.118;2022-12-18T08:51:53;64.55;;;40.20;;
26710;SDS011;18311;52.754;18.118;2022-12-18T08:54:27;62.53;;;39.92;;
26710;SDS011;18311;52.754;18.118;2022-12-18T08:56:57;64.58;;;40.00;;
26710;SDS011;18311;52.754;18.118;2022-12-18T08:59:28;72.60;;;43.75;;
26710;SDS011;18311;52.754;18.118;2022-12-18T09:01:59;67.45;;;42.05;;
26710;SDS011;18311;52.754;18.118;2022-12-18T09:04:30;80.03;;;48.52;;
26710;SDS011;18311;52.754;18.118;2022-12-18T09:07:00;75.62;;;47.20;;
26710;SDS011;18311;52.754;18.118;2022-12-18T09:09:31;74.12;;;46.37;;
26710;SDS011;18311;52.754;18.118;2022-12-18T09:12:01;67.20;;;43.02;;
26710;SDS011;18311;52.754;18.118;2022-12-18T09:14:32;65.37;;;41.28;;
26710;SDS011;18311;52.754;18.118;2022-12-18T09:17:02;55.88;;;38.00;;
26710;SDS011;18311;52.754;18.118;2022-12-18T09:19:33;63.80;;;40.67;;
26710;SDS011;18311;52.754;18.118;2022-12-18T09:22:04;75.12;;;46.05;;
26710;SDS011;18311;52.754;18.118;2022-12-18T09:24:35;78.05;;;48.30;;
26710;SDS011;18311;52.754;18.118;2022-12-18T09:27:06;78.42;;;47.95;;
26710;SDS011;18311;52.754;18.118;2022-12-18T09:29:38;77.85;;;50.23;;
26710;SDS011;18311;52.754;18.118;2022-12-18T09:32:08;74.82;;;47.62;;
26710;SDS011;18311;52.754;18.118;2022-12-18T09:34:41;67.62;;;43.33;;
26710;SDS011;18311;52.754;18.118;2022-12-18T09:37:12;69.60;;;44.05;;
26710;SDS011;18311;52.754;18.118;2022-12-18T09:39:44;63.65;;;42.40;;
26710;SDS011;18311;52.754;18.118;2022-12-18T09:42:21;62.98;;;41.73;;
26710;SDS011;18311;52.754;18.118;2022-12-18T09:44:53;66.95;;;44.67;;
26710;SDS011;18311;52.754;18.118;2022-12-18T09:47:38;72.05;;;46.48;;
26710;SDS011;18311;52.754;18.118;2022-12-18T09:50:15;80.28;;;52.62;;
26710;SDS011;18311;52.754;18.118;2022-12-18T09:52:53;81.47;;;51.35;;
26710;SDS011;18311;52.754;18.118;2022-12-18T09:55:28;80.70;;;51.63;;
26710;SDS011;18311;52.754;18.118;2022-12-18T09:58:06;81.00;;;50.30;;
26710;SDS011;18311;52.754;18.118;2022-12-18T10:00:51;81.87;;;51.90;;
26710;SDS011;18311;52.754;18.118;2022-12-18T10:03:21;83.87;;;53.00;;
26710;SDS011;18311;52.754;18.118;2022-12-18T10:06:05;84.60;;;51.45;;
26710;SDS011;18311;52.754;18.118;2022-12-18T10:08:56;75.25;;;48.70;;
26710;SDS011;18311;52.754;18.118;2022-12-18T10:17:26;76.47;;;48.58;;
26710;SDS011;18311;52.754;18.118;2022-12-18T10:20:22;74.55;;;46.28;;
26710;SDS011;18311;52.754;18.118;2022-12-18T10:25:50;76.50;;;46.88;;
26710;SDS011;18311;52.754;18.118;2022-12-18T10:28:18;74.07;;;47.15;;
26710;SDS011;18311;52.754;18.118;2022-12-18T10:30:51;74.97;;;46.42;;
26710;SDS011;18311;52.754;18.118;2022-12-18T10:33:23;68.42;;;44.35;;
26710;SDS011;18311;52.754;18.118;2022-12-18T10:35:55;68.42;;;44.48;;
26710;SDS011;18311;52.754;18.118;2022-12-18T10:38:28;71.35;;;46.23;;
26710;SDS011;18311;52.754;18.118;2022-12-18T10:41:02;78.83;;;47.00;;
26710;SDS011;18311;52.754;18.118;2022-12-18T10:43:35;77.72;;;46.77;;
26710;SDS011;18311;52.754;18.118;2022-12-18T10:51:28;67.97;;;43.70;;
26710;SDS011;18311;52.754;18.118;2022-12-18T10:54:29;73.92;;;44.45;;
26710;SDS011;18311;52.754;18.118;2022-12-18T10:57:35;68.65;;;42.85;;
26710;SDS011;18311;52.754;18.118;2022-12-18T11:02:58;73.35;;;45.28;;
26710;SDS011;18311;52.754;18.118;2022-12-18T11:05:30;72.80;;;44.55;;
26710;SDS011;18311;52.754;18.118;2022-12-18T11:08:02;79.72;;;46.53;;
26710;SDS011;18311;52.754;18.118;2022-12-18T11:10:35;80.30;;;49.00;;
26710;SDS011;18311;52.754;18.118;2022-12-18T11:13:25;79.97;;;46.33;;
26710;SDS011;18311;52.754;18.118;2022-12-18T11:15:52;104.30;;;56.53;;
26710;SDS011;18311;52.754;18.118;2022-12-18T11:20:59;92.22;;;52.10;;
26710;SDS011;18311;52.754;18.118;2022-12-18T11:23:31;89.65;;;51.77;;
26710;SDS011;18311;52.754;18.118;2022-12-18T11:26:03;81.10;;;47.98;;
26710;SDS011;18311;52.754;18.118;2022-12-18T11:28:39;81.30;;;48.40;;
26710;SDS011;18311;52.754;18.118;2022-12-18T11:36:40;96.22;;;55.20;;
26710;SDS011;18311;52.754;18.118;2022-12-18T11:39:36;93.52;;;53.85;;
26710;SDS011;18311;52.754;18.118;2022-12-18T11:42:27;91.90;;;53.42;;
26710;SDS011;18311;52.754;18.118;2022-12-18T11:50:51;92.78;;;52.85;;
26710;SDS011;18311;52.754;18.118;2022-12-18T11:53:24;90.38;;;52.00;;
26710;SDS011;18311;52.754;18.118;2022-12-18T11:56:01;83.07;;;48.20;;
26710;SDS011;18311;52.754;18.118;2022-12-18T11:58:58;82.70;;;48.87;;
26710;SDS011;18311;52.754;18.118;2022-12-18T12:12:31;90.22;;;51.88;;
26710;SDS011;18311;52.754;18.118;2022-12-18T12:17:57;89.77;;;52.70;;
26710;SDS011;18311;52.754;18.118;2022-12-18T12:20:42;84.35;;;48.38;;
26710;SDS011;18311;52.754;18.118;2022-12-18T12:26:23;86.63;;;49.30;;
26710;SDS011;18311;52.754;18.118;2022-12-18T12:29:39;85.15;;;49.20;;
26710;SDS011;18311;52.754;18.118;2022-12-18T12:40:44;73.70;;;45.17;;
26710;SDS011;18311;52.754;18.118;2022-12-18T12:43:27;77.85;;;46.00;;
26710;SDS011;18311;52.754;18.118;2022-12-18T12:53:56;67.67;;;42.35;;
26710;SDS011;18311;52.754;18.118;2022-12-18T12:56:40;68.78;;;42.13;;
26710;SDS011;18311;52.754;18.118;2022-12-18T12:59:50;75.20;;;46.10;;
26710;SDS011;18311;52.754;18.118;2022-12-18T13:05:58;74.45;;;45.63;;
26710;SDS011;18311;52.754;18.118;2022-12-18T13:08:32;68.28;;;42.17;;
26710;SDS011;18311;52.754;18.118;2022-12-18T13:11:14;72.80;;;45.58;;
26710;SDS011;18311;52.754;18.118;2022-12-18T13:13:59;77.42;;;45.98;;
26710;SDS011;18311;52.754;18.118;2022-12-18T13:16:30;69.50;;;44.55;;
26710;SDS011;18311;52.754;18.118;2022-12-18T13:19:00;69.37;;;44.95;;
26710;SDS011;18311;52.754;18.118;2022-12-18T13:21:34;69.97;;;45.78;;
26710;SDS011;18311;52.754;18.118;2022-12-18T13:26:58;70.57;;;45.73;;
26710;SDS011;18311;52.754;18.118;2022-12-18T13:29:40;70.10;;;44.80;;
26710;SDS011;18311;52.754;18.118;2022-12-18T13:32:22;79.27;;;47.67;;
26710;SDS011;18311;52.754;18.118;2022-12-18T13:37:53;72.47;;;45.80;;
26710;SDS011;18311;52.754;18.118;2022-12-18T13:43:26;71.53;;;45.25;;
26710;SDS011;18311;52.754;18.118;2022-12-18T13:46:06;72.20;;;44.03;;
26710;SDS011;18311;52.754;18.118;2022-12-18T13:49:15;69.25;;;42.85;;
26710;SDS011;18311;52.754;18.118;2022-12-18T13:51:36;66.82;;;42.43;;
26710;SDS011;18311;52.754;18.118;2022-12-18T13:57:01;59.35;;;38.17;;
26710;SDS011;18311;52.754;18.118;2022-12-18T13:59:38;56.10;;;37.65;;
26710;SDS011;18311;52.754;18.118;2022-12-18T14:02:17;62.23;;;39.35;;
26710;SDS011;18311;52.754;18.118;2022-12-18T14:04:49;64.10;;;41.08;;
26710;SDS011;18311;52.754;18.118;2022-12-18T14:07:22;60.43;;;40.92;;
26710;SDS011;18311;52.754;18.118;2022-12-18T14:09:58;59.30;;;40.38;;
26710;SDS011;18311;52.754;18.118;2022-12-18T14:12:32;63.55;;;41.63;;
26710;SDS011;18311;52.754;18.118;2022-12-18T14:20:41;59.42;;;39.65;;
26710;SDS011;18311;52.754;18.118;2022-12-18T14:28:58;64.03;;;42.93;;
26710;SDS011;18311;52.754;18.118;2022-12-18T14:31:31;68.55;;;45.12;;
26710;SDS011;18311;52.754;18.118;2022-12-18T14:34:01;65.83;;;43.00;;
26710;SDS011;18311;52.754;18.118;2022-12-18T14:36:33;63.42;;;40.50;;
26710;SDS011;18311;52.754;18.118;2022-12-18T14:39:04;60.38;;;39.00;;
26710;SDS011;18311;52.754;18.118;2022-12-18T14:41:36;66.22;;;41.00;;
26710;SDS011;18311;52.754;18.118;2022-12-18T14:44:07;67.60;;;42.78;;
26710;SDS011;18311;52.754;18.118;2022-12-18T14:46:41;75.40;;;47.10;;
26710;SDS011;18311;52.754;18.118;2022-12-18T14:49:25;67.37;;;43.35;;
26710;SDS011;18311;52.754;18.118;2022-12-18T14:52:00;65.95;;;42.90;;
26710;SDS011;18311;52.754;18.118;2022-12-18T14:54:38;61.42;;;40.45;;
26710;SDS011;18311;52.754;18.118;2022-12-18T14:57:23;63.58;;;41.33;;
26710;SDS011;18311;52.754;18.118;2022-12-18T15:00:17;66.57;;;42.73;;
26710;SDS011;18311;52.754;18.118;2022-12-18T15:02:57;62.58;;;39.67;;
26710;SDS011;18311;52.754;18.118;2022-12-18T15:05:32;65.37;;;41.53;;
26710;SDS011;18311;52.754;18.118;2022-12-18T15:08:25;63.35;;;42.13;;
26710;SDS011;18311;52.754;18.118;2022-12-18T15:10:49;70.50;;;44.83;;
26710;SDS011;18311;52.754;18.118;2022-12-18T15:13:22;69.90;;;46.83;;
26710;SDS011;18311;52.754;18.118;2022-12-18T15:15:58;77.42;;;49.13;;
26710;SDS011;18311;52.754;18.118;2022-12-18T15:18:35;74.70;;;49.23;;
26710;SDS011;18311;52.754;18.118;2022-12-18T15:21:28;72.78;;;46.75;;
26710;SDS011;18311;52.754;18.118;2022-12-18T15:24:03;74.82;;;47.60;;
26710;SDS011;18311;52.754;18.118;2022-12-18T15:26:36;75.25;;;47.23;;
26710;SDS011;18311;52.754;18.118;2022-12-18T15:29:19;69.70;;;44.80;;
26710;SDS011;18311;52.754;18.118;2022-12-18T15:32:03;63.73;;;40.35;;
26710;SDS011;18311;52.754;18.118;2022-12-18T15:34:38;65.40;;;41.63;;
26710;SDS011;18311;52.754;18.118;2022-12-18T15:37:11;67.47;;;42.80;;
26710;SDS011;18311;52.754;18.118;2022-12-18T15:39:44;68.25;;;41.37;;
26710;SDS011;18311;52.754;18.118;2022-12-18T15:42:15;72.40;;;45.10;;
26710;SDS011;18311;52.754;18.118;2022-12-18T15:45:25;73.57;;;45.90;;
26710;SDS011;18311;52.754;18.118;2022-12-18T15:48:08;64.07;;;41.10;;
26710;SDS011;18311;52.754;18.118;2022-12-18T15:50:54;66.75;;;42.53;;
26710;SDS011;18311;52.754;18.118;2022-12-18T15:53:29;68.45;;;41.37;;
26710;SDS011;18311;52.754;18.118;2022-12-18T15:56:04;65.97;;;43.05;;
26710;SDS011;18311;52.754;18.118;2022-12-18T15:59:14;66.22;;;42.60;;
26710;SDS011;18311;52.754;18.118;2022-12-18T16:01:48;66.17;;;43.08;;
26710;SDS011;18311;52.754;18.118;2022-12-18T16:04:24;69.42;;;45.48;;
26710;SDS011;18311;52.754;18.118;2022-12-18T16:06:57;64.35;;;42.25;;
26710;SDS011;18311;52.754;18.118;2022-12-18T16:09:35;64.50;;;42.53;;
26710;SDS011;18311;52.754;18.118;2022-12-18T16:12:29;56.63;;;38.35;;
26710;SDS011;18311;52.754;18.118;2022-12-18T16:15:03;61.00;;;40.58;;
26710;SDS011;18311;52.754;18.118;2022-12-18T16:17:37;58.33;;;39.53;;
26710;SDS011;18311;52.754;18.118;2022-12-18T16:20:27;63.48;;;41.23;;
26710;SDS011;18311;52.754;18.118;2022-12-18T16:23:01;75.92;;;47.53;;
26710;SDS011;18311;52.754;18.118;2022-12-18T16:25:36;68.47;;;42.95;;
26710;SDS011;18311;52.754;18.118;2022-12-18T16:28:10;67.90;;;42.23;;
26710;SDS011;18311;52.754;18.118;2022-12-18T16:30:43;62.00;;;41.05;;
26710;SDS011;18311;52.754;18.118;2022-12-18T16:33:19;63.25;;;41.92;;
26710;SDS011;18311;52.754;18.118;2022-12-18T16:35:56;64.15;;;41.18;;
26710;SDS011;18311;52.754;18.118;2022-12-18T16:38:28;62.30;;;41.10;;
26710;SDS011;18311;52.754;18.118;2022-12-18T16:41:22;60.63;;;39.65;;
26710;SDS011;18311;52.754;18.118;2022-12-18T16:44:04;59.60;;;39.30;;
26710;SDS011;18311;52.754;18.118;2022-12-18T16:46:42;61.60;;;39.67;;
26710;SDS011;18311;52.754;18.118;2022-12-18T16:49:21;62.78;;;40.30;;
26710;SDS011;18311;52.754;18.118;2022-12-18T16:51:55;63.00;;;41.25;;
26710;SDS011;18311;52.754;18.118;2022-12-18T16:54:31;66.37;;;42.65;;
26710;SDS011;18311;52.754;18.118;2022-12-18T16:57:07;64.67;;;42.45;;
26710;SDS011;18311;52.754;18.118;2022-12-18T16:59:45;69.85;;;43.48;;
26710;SDS011;18311;52.754;18.118;2022-12-18T17:02:20;65.47;;;41.80;;
26710;SDS011;18311;52.754;18.118;2022-12-18T17:04:56;67.60;;;42.30;;
26710;SDS011;18311;52.754;18.118;2022-12-18T17:07:32;63.87;;;40.88;;
26710;SDS011;18311;52.754;18.118;2022-12-18T17:10:08;63.08;;;41.37;;
26710;SDS011;18311;52.754;18.118;2022-12-18T17:12:42;71.57;;;45.12;;